createdAt,value
2022-12-26T00:02:02.097Z,99622.44
2022-12-26T00:04:52.182Z,99628.56
2022-12-26T00:07:23.798Z,99619.81
2022-12-26T00:09:53.000Z,99632.91
2022-12-26T00:12:21.678Z,99627.69
2022-12-26T00:14:51.808Z,99626.81
2022-12-26T00:17:22.117Z,99617.19
2022-12-26T00:19:53.699Z,99623.31
2022-12-26T00:22:22.690Z,99620.69
2022-12-26T00:24:51.599Z,99604.97
2022-12-26T00:27:23.719Z,99612.84
2022-12-26T00:29:53.529Z,99618.94
2022-12-26T00:32:24.276Z,99620.72
2022-12-26T00:34:55.232Z,99619.00
2022-12-26T00:37:24.092Z,99625.13
2022-12-26T00:39:54.368Z,99620.78
2022-12-26T00:42:24.254Z,99616.41
2022-12-26T00:44:53.946Z,99609.47
2022-12-26T00:47:22.982Z,99614.69
2022-12-26T00:50:13.482Z,99606.84
2022-12-26T00:52:43.126Z,99613.81
2022-12-26T00:55:12.221Z,99606.84
2022-12-26T00:57:42.361Z,99618.19
2022-12-26T01:00:13.256Z,99618.19
2022-12-26T01:02:43.051Z,99612.06
2022-12-26T01:05:13.748Z,99618.19
2022-12-26T01:08:20.348Z,99621.66
2022-12-26T01:10:35.143Z,99622.56
2022-12-26T01:13:04.725Z,99648.75
2022-12-26T01:15:33.790Z,99667.97
2022-12-26T01:18:04.106Z,99672.34
2022-12-26T01:20:35.356Z,99666.19
2022-12-26T01:23:06.679Z,99669.66
2022-12-26T01:25:35.581Z,99672.25
2022-12-26T01:28:05.472Z,99673.13
2022-12-26T01:30:35.987Z,99670.47
2022-12-26T01:33:05.758Z,99680.06
2022-12-26T01:35:35.436Z,99678.31
2022-12-26T01:38:06.645Z,99705.38
2022-12-26T01:40:36.052Z,99684.41
2022-12-26T01:43:04.574Z,99691.34
2022-12-26T01:45:34.481Z,99692.22
2022-12-26T01:48:07.361Z,99688.72
2022-12-26T01:50:43.593Z,99688.69
2022-12-26T01:53:17.175Z,99693.03
2022-12-26T01:55:52.261Z,99692.19
2022-12-26T01:58:26.874Z,99682.53
2022-12-26T02:01:01.957Z,99686.94
2022-12-26T02:03:51.311Z,99676.41
2022-12-26T02:06:20.262Z,99676.41
2022-12-26T02:08:52.560Z,99678.16
2022-12-26T02:11:27.366Z,99682.53
2022-12-26T02:13:58.149Z,99689.50
2022-12-26T02:16:27.942Z,99697.38
2022-12-26T02:18:57.064Z,99707.84
2022-12-26T02:21:57.585Z,99702.53
2022-12-26T02:24:53.513Z,99692.03
2022-12-26T02:27:48.713Z,99693.84
2022-12-26T02:30:34.602Z,99689.47
2022-12-26T02:33:21.078Z,99689.44
2022-12-26T02:36:15.249Z,99700.81
2022-12-26T02:38:55.781Z,99706.06
2022-12-26T02:41:31.135Z,99706.06
2022-12-26T02:44:28.411Z,99706.00
2022-12-26T02:47:11.014Z,99725.22
2022-12-26T02:50:22.720Z,99717.38
2022-12-26T02:53:22.355Z,99708.63
2022-12-26T02:56:14.482Z,99718.22
2022-12-26T02:59:18.239Z,99716.50
2022-12-26T03:02:09.000Z,99713.91
2022-12-26T03:05:08.193Z,99709.53
2022-12-26T03:08:00.723Z,99712.16
2022-12-26T03:10:52.233Z,99713.91
2022-12-26T03:13:28.251Z,99713.00
2022-12-26T03:16:19.805Z,99726.13
2022-12-26T03:18:58.097Z,99721.78
2022-12-26T03:21:36.023Z,99720.03
2022-12-26T03:24:06.704Z,99719.16
2022-12-26T03:26:41.100Z,99710.38
2022-12-26T03:29:30.304Z,99707.75
2022-12-26T03:32:07.890Z,99716.44
2022-12-26T03:34:43.217Z,99723.38
2022-12-26T03:37:48.380Z,99734.69
2022-12-26T03:40:55.299Z,99744.28
2022-12-26T03:43:58.888Z,99738.13
2022-12-26T03:47:00.145Z,99725.84
2022-12-26T03:49:49.686Z,99723.19
2022-12-26T03:52:47.134Z,99726.69
2022-12-26T03:55:42.488Z,99735.38
2022-12-26T03:58:39.648Z,99744.03
2022-12-26T04:01:33.600Z,99747.50
2022-12-26T04:04:26.428Z,99735.28
2022-12-26T04:07:32.769Z,99737.84
2022-12-26T04:10:27.130Z,99729.91
2022-12-26T04:13:17.338Z,99740.31
2022-12-26T04:16:08.346Z,99740.25
2022-12-26T04:19:01.739Z,99752.44
2022-12-26T04:21:55.761Z,99768.94
2022-12-26T04:24:48.874Z,99777.63
2022-12-26T04:27:40.243Z,99773.25
2022-12-26T04:30:29.246Z,99760.94
2022-12-26T04:33:25.843Z,99767.88
2022-12-26T04:36:18.211Z,99759.09
2022-12-26T04:39:12.836Z,99760.78
2022-12-26T04:42:01.599Z,99771.22
2022-12-26T04:44:31.702Z,99771.16
2022-12-26T04:47:02.292Z,99775.50
2022-12-26T04:49:49.333Z,99774.63
2022-12-26T04:52:21.617Z,99772.84
2022-12-26T04:54:52.473Z,99783.31
2022-12-26T04:57:22.759Z,99777.19
2022-12-26T04:59:52.126Z,99771.09
2022-12-26T05:02:39.371Z,99776.38
2022-12-26T05:05:28.122Z,99772.84
2022-12-26T05:08:14.769Z,99764.09
2022-12-26T05:10:45.153Z,99770.22
2022-12-26T05:13:14.968Z,99772.84
2022-12-26T05:15:59.473Z,99772.84
2022-12-26T05:18:51.707Z,99777.25
2022-12-26T05:21:38.963Z,99769.41
2022-12-26T05:24:29.153Z,99777.25
2022-12-26T05:27:23.287Z,99778.06
2022-12-26T05:29:52.458Z,99777.19
2022-12-26T05:32:38.882Z,99767.63
2022-12-26T05:35:11.724Z,99772.84
2022-12-26T05:37:41.780Z,99774.59
2022-12-26T05:40:11.674Z,99782.44
2022-12-26T05:42:40.609Z,99785.03
2022-12-26T05:45:10.833Z,99783.25
2022-12-26T05:47:40.718Z,99792.88
2022-12-26T05:50:19.151Z,99791.16
2022-12-26T05:52:58.890Z,99786.72
2022-12-26T05:55:29.408Z,99799.81
2022-12-26T05:58:02.326Z,99792.78
2022-12-26T06:00:32.431Z,99792.78
2022-12-26T06:03:02.318Z,99773.59
2022-12-26T06:05:33.618Z,99773.59
2022-12-26T06:08:03.744Z,99757.03
2022-12-26T06:10:32.904Z,99776.22
2022-12-26T06:13:05.375Z,99766.63
2022-12-26T06:15:34.803Z,99763.13
2022-12-26T06:18:04.579Z,99758.78
2022-12-26T06:20:35.915Z,99756.16
2022-12-26T06:23:09.281Z,99773.59
2022-12-26T06:25:39.345Z,99778.78
2022-12-26T06:28:09.774Z,99785.81
2022-12-26T06:30:38.912Z,99781.41
2022-12-26T06:33:14.932Z,99778.78
2022-12-26T06:35:52.203Z,99793.66
2022-12-26T06:38:21.289Z,99784.94
2022-12-26T06:40:53.382Z,99779.72
2022-12-26T06:43:23.482Z,99771.88
2022-12-26T06:45:59.298Z,99782.34
2022-12-26T06:48:29.322Z,99784.94
2022-12-26T06:51:08.790Z,99796.28
2022-12-26T06:53:42.075Z,99777.97
2022-12-26T06:56:14.388Z,99784.13
2022-12-26T06:58:45.460Z,99780.63
2022-12-26T07:01:19.589Z,99778.03
2022-12-26T07:03:59.508Z,99778.03
2022-12-26T07:06:39.031Z,99789.34
2022-12-26T07:09:14.623Z,99805.06
2022-12-26T07:11:46.515Z,99812.91
2022-12-26T07:14:19.634Z,99820.75
2022-12-26T07:16:49.149Z,99831.22
2022-12-26T07:19:18.508Z,99836.47
2022-12-26T07:21:54.663Z,99832.13
2022-12-26T07:24:27.061Z,99827.78
2022-12-26T07:26:58.842Z,99835.66
2022-12-26T07:29:28.965Z,99837.44
2022-12-26T07:32:04.753Z,99847.91
2022-12-26T07:34:38.735Z,99849.66
2022-12-26T07:37:10.626Z,99838.34
2022-12-26T07:39:40.968Z,99853.19
2022-12-26T07:42:11.265Z,99854.06
2022-12-26T07:44:43.276Z,99848.81
2022-12-26T07:47:12.085Z,99861.91
2022-12-26T07:49:41.601Z,99862.78
2022-12-26T07:52:12.501Z,99870.59
2022-12-26T07:54:41.687Z,99863.59
2022-12-26T07:57:46.847Z,99877.56
2022-12-26T08:00:10.972Z,99877.56
2022-12-26T08:02:43.701Z,99878.44
2022-12-26T08:05:24.502Z,99867.09
2022-12-26T08:08:01.055Z,99874.94
2022-12-26T08:10:32.871Z,99881.06
2022-12-26T08:13:02.103Z,99874.94
2022-12-26T08:15:31.577Z,99881.94
2022-12-26T08:18:01.589Z,99876.69
2022-12-26T08:20:31.307Z,99870.59
2022-12-26T08:23:02.434Z,99875.00
2022-12-26T08:25:35.637Z,99871.47
2022-12-26T08:28:04.388Z,99874.06
2022-12-26T08:30:33.446Z,99884.53
2022-12-26T08:33:02.992Z,99895.00
2022-12-26T08:35:35.402Z,99893.22
2022-12-26T08:38:09.311Z,99892.34
2022-12-26T08:40:43.960Z,99885.34
2022-12-26T08:43:39.155Z,99898.44
2022-12-26T08:46:08.369Z,99887.97
2022-12-26T08:48:40.498Z,99897.56
2022-12-26T08:51:15.329Z,99901.06
2022-12-26T08:53:49.747Z,99915.88
2022-12-26T08:56:21.845Z,99912.41
2022-12-26T08:58:52.014Z,99911.53
2022-12-26T09:01:23.577Z,99910.63
2022-12-26T09:03:54.278Z,99917.56
2022-12-26T09:06:23.289Z,99926.28
2022-12-26T09:08:54.468Z,99926.28
2022-12-26T09:11:26.856Z,99915.78
2022-12-26T09:14:01.666Z,99925.41
2022-12-26T09:16:37.739Z,99925.44
2022-12-26T09:19:08.003Z,99926.34
2022-12-26T09:21:37.543Z,99928.97
2022-12-26T09:24:13.109Z,99930.66
2022-12-26T09:26:43.431Z,99928.03
2022-12-26T09:29:13.150Z,99926.34
2022-12-26T09:31:41.593Z,99935.91
2022-12-26T09:34:13.973Z,99935.91
2022-12-26T09:36:42.923Z,99931.56
2022-12-26T09:39:14.151Z,99949.03
2022-12-26T09:42:03.099Z,99953.41
2022-12-26T09:44:47.392Z,99954.22
2022-12-26T09:47:31.595Z,99968.22
2022-12-26T09:50:05.421Z,99969.09
2022-12-26T09:52:42.121Z,99970.00
2022-12-26T09:55:27.229Z,99980.50
2022-12-26T09:58:01.649Z,99989.22
2022-12-26T10:00:39.508Z,99974.38
2022-12-26T10:03:11.811Z,99971.81
2022-12-26T10:05:48.855Z,99976.19
2022-12-26T10:08:28.721Z,99972.72
2022-12-26T10:11:03.203Z,99973.66
2022-12-26T10:13:37.997Z,99959.69
2022-12-26T10:16:11.726Z,99955.31
2022-12-26T10:18:55.100Z,99959.72
2022-12-26T10:21:35.053Z,99951.03
2022-12-26T10:24:09.861Z,99961.53
2022-12-26T10:26:42.483Z,99958.94
2022-12-26T10:29:23.120Z,99965.97
2022-12-26T10:31:56.097Z,99955.50
2022-12-26T10:34:27.538Z,99951.16
2022-12-26T10:37:03.509Z,99947.72
2022-12-26T10:39:46.706Z,99950.34
2022-12-26T10:42:26.376Z,99946.84
2022-12-26T10:44:55.144Z,99946.84
2022-12-26T10:47:28.104Z,99959.06
2022-12-26T10:49:59.975Z,99953.81
2022-12-26T10:52:33.524Z,99956.50
2022-12-26T10:55:28.118Z,99948.66
2022-12-26T10:57:55.805Z,99949.56
2022-12-26T11:00:27.366Z,99953.13
2022-12-26T11:03:08.082Z,99958.41
2022-12-26T11:06:06.377Z,99961.03
2022-12-26T11:08:40.815Z,99962.00
2022-12-26T11:11:15.940Z,99962.06
2022-12-26T11:14:00.829Z,99948.13
2022-12-26T11:16:33.727Z,99967.38
2022-12-26T11:19:04.154Z,99963.06
2022-12-26T11:21:34.824Z,99955.25
2022-12-26T11:24:19.763Z,99947.47
2022-12-26T11:26:48.095Z,99954.41
2022-12-26T11:29:19.835Z,99962.22
2022-12-26T11:31:55.119Z,99958.75
2022-12-26T11:34:32.465Z,99968.38
2022-12-26T11:37:02.472Z,99969.22
2022-12-26T11:39:34.822Z,99950.03
2022-12-26T11:42:11.554Z,99951.81
2022-12-26T11:44:46.374Z,99957.06
2022-12-26T11:47:18.002Z,99948.34
2022-12-26T11:49:53.748Z,99943.09
2022-12-26T12:01:23.311Z,99964.00
2022-12-26T12:04:48.154Z,99958.59
2022-12-26T12:11:55.480Z,99956.31
2022-12-26T12:14:34.478Z,99957.94
2022-12-26T12:17:23.184Z,99962.19
2022-12-26T12:20:07.441Z,99955.94
2022-12-26T12:23:08.141Z,99961.13
2022-12-26T12:25:51.127Z,99957.56
2022-12-26T12:28:48.136Z,99966.28
2022-12-26T12:31:26.313Z,99973.19
2022-12-26T12:34:05.293Z,99974.88
2022-12-26T12:36:40.868Z,99967.78
2022-12-26T12:39:17.563Z,99961.66
2022-12-26T12:42:02.706Z,99958.94
2022-12-26T12:44:54.050Z,99971.06
2022-12-26T12:47:32.370Z,99971.91
2022-12-26T12:50:14.786Z,99961.38
2022-12-26T12:52:53.758Z,99954.41
2022-12-26T12:55:37.882Z,99961.31
2022-12-26T12:58:14.080Z,99951.66
2022-12-26T13:00:46.295Z,99962.06
2022-12-26T13:03:31.774Z,99955.91
2022-12-26T13:06:07.714Z,99978.50
2022-12-26T13:08:40.204Z,99998.53
2022-12-26T13:11:14.228Z,100007.03
2022-12-26T13:13:51.751Z,100008.38
2022-12-26T13:16:26.690Z,100007.88
2022-12-26T13:19:00.934Z,100008.31
2022-12-26T13:21:35.860Z,100017.47
2022-12-26T13:24:25.453Z,100019.78
2022-12-26T13:27:01.257Z,100022.88
2022-12-26T13:29:40.184Z,100028.81
2022-12-26T13:32:19.418Z,100027.72
2022-12-26T13:34:49.802Z,100024.16
2022-12-26T13:37:58.987Z,100029.28
2022-12-26T13:40:31.816Z,100028.28
2022-12-26T13:43:21.831Z,100036.06
2022-12-26T13:45:55.170Z,100044.69
2022-12-26T13:48:58.685Z,100041.16
2022-12-26T13:51:58.368Z,100036.78
2022-12-26T13:54:30.055Z,100039.31
2022-12-26T13:57:35.284Z,100040.19
2022-12-26T14:00:19.919Z,100037.66
2022-12-26T14:03:25.257Z,100035.06
2022-12-26T14:06:14.327Z,100038.53
2022-12-26T14:08:55.576Z,100045.50
2022-12-26T14:11:43.922Z,100050.72
2022-12-26T14:14:22.792Z,100052.47
2022-12-26T14:17:05.199Z,100066.41
2022-12-26T14:19:46.417Z,100069.00
2022-12-26T14:22:23.685Z,100059.41
2022-12-26T14:25:04.121Z,100073.31
2022-12-26T14:27:45.709Z,100076.69
2022-12-26T14:30:28.735Z,100080.06
2022-12-26T14:33:16.035Z,100085.09
2022-12-26T14:35:54.757Z,100102.31
2022-12-26T14:38:34.490Z,100117.03
2022-12-26T14:41:07.077Z,100121.31
2022-12-26T14:43:41.265Z,100122.06
2022-12-26T14:46:49.623Z,100131.53
2022-12-26T14:49:22.862Z,100137.47
2022-12-26T14:51:51.919Z,100127.88
2022-12-26T14:54:43.051Z,100140.88
2022-12-26T14:57:43.846Z,100139.88
2022-12-26T15:00:32.686Z,100129.34
2022-12-26T15:03:41.726Z,100129.22
2022-12-26T15:06:49.376Z,100140.44
2022-12-26T15:09:51.240Z,100137.78
2022-12-26T15:12:56.812Z,100142.06
2022-12-26T15:15:47.665Z,100149.78
2022-12-26T15:18:47.083Z,100148.88
2022-12-26T15:21:49.170Z,100156.72
2022-12-26T15:28:32.119Z,100165.25
2022-12-26T15:31:39.372Z,100174.78
2022-12-26T15:34:42.504Z,100173.03
2022-12-26T15:37:30.662Z,100175.56
2022-12-26T15:40:12.682Z,100169.41
2022-12-26T15:42:53.765Z,100193.72
2022-12-26T15:45:33.273Z,100209.19
2022-12-26T15:48:12.375Z,100214.22
2022-12-26T15:50:55.076Z,100231.47
2022-12-26T15:53:33.004Z,100232.94
2022-12-26T15:56:43.798Z,100242.31
2022-12-26T15:59:49.200Z,100242.19
2022-12-26T16:02:34.501Z,100255.91
2022-12-26T16:05:23.911Z,100264.47
2022-12-26T16:08:02.018Z,100263.31
2022-12-26T16:10:32.655Z,100260.53
2022-12-26T16:13:08.127Z,100262.91
2022-12-26T16:15:47.476Z,100266.94
2022-12-26T16:18:18.509Z,100274.66
2022-12-26T16:21:09.606Z,100273.50
2022-12-26T16:23:41.234Z,100283.78
2022-12-26T16:26:19.056Z,100288.72
2022-12-26T16:28:48.631Z,100292.03
2022-12-26T16:31:21.844Z,100294.50
2022-12-26T16:33:53.218Z,100302.19
2022-12-26T16:36:26.502Z,100299.38
2022-12-26T16:38:56.322Z,100310.50
2022-12-26T16:41:27.108Z,100314.66
2022-12-26T16:43:58.261Z,100313.56
2022-12-26T16:46:31.187Z,100309.09
2022-12-26T16:49:02.231Z,100325.38
2022-12-26T16:51:41.872Z,100325.13
2022-12-26T16:54:25.615Z,100334.47
2022-12-26T16:57:02.355Z,100331.66
2022-12-26T16:59:46.185Z,100337.59
2022-12-26T17:02:20.858Z,100332.97
2022-12-26T17:04:58.675Z,100345.84
2022-12-26T17:07:29.660Z,100345.72
2022-12-26T17:10:01.859Z,100361.22
2022-12-26T17:12:39.467Z,100365.34
2022-12-26T17:15:10.781Z,100363.47
2022-12-26T17:17:44.986Z,100372.91
2022-12-26T17:20:36.679Z,100370.13
2022-12-26T17:23:36.533Z,100378.59
2022-12-26T17:26:21.629Z,100387.94
2022-12-26T17:28:51.074Z,100381.72
2022-12-26T17:31:29.237Z,100383.34
2022-12-26T17:34:00.113Z,100388.50
2022-12-26T17:37:08.722Z,100390.19
2022-12-26T17:39:27.136Z,100406.47
2022-12-26T17:41:58.186Z,100416.78
2022-12-26T17:44:48.697Z,100406.25
2022-12-26T17:47:23.195Z,100404.41
2022-12-26T17:49:55.682Z,100406.03
2022-12-26T17:52:28.710Z,100415.44
2022-12-26T17:55:00.742Z,100433.34
2022-12-26T17:57:31.241Z,100426.06
2022-12-26T18:00:00.797Z,100430.94
2022-12-26T18:02:29.885Z,100437.72
2022-12-26T18:04:59.161Z,100441.69
2022-12-26T18:07:31.340Z,100440.72
2022-12-26T18:10:02.859Z,100445.63
2022-12-26T18:12:31.565Z,100442.69
2022-12-26T18:15:02.356Z,100448.38
2022-12-26T18:17:35.054Z,100447.06
2022-12-26T18:20:04.769Z,100466.72
2022-12-26T18:22:33.749Z,100458.78
2022-12-26T18:25:04.212Z,100472.50
2022-12-26T18:27:34.994Z,100477.59
2022-12-26T18:30:04.296Z,100480.88
2022-12-26T18:32:35.564Z,100489.28
2022-12-26T18:35:04.824Z,100491.47
2022-12-26T18:37:34.166Z,100499.22
2022-12-26T18:40:05.817Z,100502.50
2022-12-26T18:42:35.152Z,100511.84
2022-12-26T18:45:04.471Z,100506.41
2022-12-26T18:47:33.329Z,100521.09
2022-12-26T18:50:02.742Z,100514.84
2022-12-26T18:52:31.641Z,100516.53
2022-12-26T18:55:00.199Z,100522.44
2022-12-26T18:57:30.204Z,100524.97
2022-12-26T18:59:59.433Z,100532.59
2022-12-26T19:02:28.216Z,100541.16
2022-12-26T19:04:56.858Z,100549.56
2022-12-26T19:07:25.726Z,100559.78
2022-12-26T19:09:55.821Z,100561.41
2022-12-26T19:12:25.316Z,100563.03
2022-12-26T19:14:55.440Z,100559.47
2022-12-26T19:17:24.128Z,100564.50
2022-12-26T19:19:53.109Z,100565.91
2022-12-26T19:22:21.759Z,100576.09
2022-12-26T19:24:50.644Z,100586.31
2022-12-26T19:27:19.618Z,100584.53
2022-12-26T19:29:48.384Z,100582.56
2022-12-26T19:32:18.647Z,100587.59
2022-12-26T19:34:47.442Z,100591.78
2022-12-26T19:37:16.104Z,100601.16
2022-12-26T19:39:44.953Z,100595.81
2022-12-26T19:42:13.593Z,100605.31
2022-12-26T19:44:42.297Z,100609.41
2022-12-26T19:47:13.002Z,100618.78
2022-12-26T19:49:44.159Z,100616.81
2022-12-26T19:52:13.112Z,100621.03
2022-12-26T19:54:42.484Z,100621.75
2022-12-26T19:57:11.771Z,100620.75
2022-12-26T19:59:40.989Z,100632.81
2022-12-26T20:02:13.453Z,100627.47
2022-12-26T20:04:44.234Z,100626.53
2022-12-26T20:07:13.241Z,100641.22
2022-12-26T20:09:42.195Z,100643.81
2022-12-26T20:12:11.027Z,100650.69
2022-12-26T20:14:39.862Z,100643.72
2022-12-26T20:17:09.564Z,100650.59
2022-12-26T20:19:39.321Z,100665.19
2022-12-26T20:22:09.591Z,100664.19
2022-12-26T20:24:38.325Z,100662.31
2022-12-26T20:27:07.391Z,100672.56
2022-12-26T20:29:36.277Z,100674.16
2022-12-26T20:32:05.464Z,100668.91
2022-12-26T20:34:34.701Z,100675.69
2022-12-26T20:37:04.054Z,100680.00
2022-12-26T20:39:34.255Z,100677.41
2022-12-26T20:42:03.177Z,100684.19
2022-12-26T20:44:34.920Z,100683.19
2022-12-26T20:47:03.629Z,100682.28
2022-12-26T20:49:33.653Z,100686.59
2022-12-26T20:52:03.041Z,100685.59
2022-12-26T20:54:36.567Z,100690.78
2022-12-26T20:57:05.949Z,100690.59
2022-12-26T20:59:35.431Z,100690.59
2022-12-26T21:02:04.851Z,100698.25
2022-12-26T21:04:34.647Z,100697.25
2022-12-26T21:07:04.050Z,100705.03
2022-12-26T21:09:34.569Z,100700.56
2022-12-26T21:12:03.972Z,100691.03
2022-12-26T21:14:33.686Z,100694.38
2022-12-26T21:17:03.436Z,100697.78
2022-12-26T21:19:33.258Z,100695.31
2022-12-26T21:22:01.995Z,100694.50
2022-12-26T21:24:33.075Z,100700.66
2022-12-26T21:27:04.340Z,100704.34
2022-12-26T21:29:35.613Z,100704.44
2022-12-26T21:32:05.883Z,100708.91
2022-12-26T21:34:35.279Z,100715.09
2022-12-26T21:37:21.572Z,100719.47
2022-12-26T21:39:50.730Z,100714.47
2022-12-26T21:42:20.753Z,100717.16
2022-12-26T21:44:49.682Z,100718.03
2022-12-26T21:47:18.688Z,100719.03
2022-12-26T21:49:48.382Z,100725.03
2022-12-26T21:52:17.368Z,100715.56
2022-12-26T21:55:03.361Z,100726.81
2022-12-26T21:57:35.346Z,100721.63
2022-12-26T22:00:05.696Z,100730.22
2022-12-26T22:02:54.855Z,100731.00
2022-12-26T22:05:27.090Z,100734.41
2022-12-26T22:07:57.551Z,100733.41
2022-12-26T22:10:46.383Z,100741.25
2022-12-26T22:13:16.645Z,100748.97
2022-12-26T22:16:05.233Z,100759.16
2022-12-26T22:18:37.303Z,100750.38
2022-12-26T22:21:08.972Z,100765.03
2022-12-26T22:23:38.542Z,100753.75
2022-12-26T22:26:10.440Z,100763.16
2022-12-26T22:28:40.822Z,100756.97
2022-12-26T22:31:10.031Z,100764.63
2022-12-26T22:33:38.707Z,100766.22
2022-12-26T22:36:09.125Z,100781.78
2022-12-26T22:38:38.901Z,100776.50
2022-12-26T22:41:08.997Z,100780.81
2022-12-26T22:43:38.927Z,100779.81
2022-12-26T22:46:09.968Z,100784.06
2022-12-26T22:48:38.934Z,100781.41
2022-12-26T22:51:07.834Z,100789.94
2022-12-26T22:53:36.336Z,100790.66
2022-12-26T22:56:07.372Z,100791.47
2022-12-26T22:58:37.390Z,100794.88
2022-12-26T23:01:14.806Z,100794.75
2022-12-26T23:03:44.587Z,100797.25
2022-12-26T23:06:22.026Z,100788.56
2022-12-26T23:08:53.218Z,100798.84
2022-12-26T23:11:25.251Z,100797.03
2022-12-26T23:13:56.516Z,100791.88
2022-12-26T23:16:33.215Z,100796.03
2022-12-26T23:19:23.957Z,100804.75
2022-12-26T23:21:53.923Z,100803.81
2022-12-26T23:24:25.300Z,100803.81
2022-12-26T23:26:57.027Z,100812.41
2022-12-26T23:29:49.040Z,100808.91
2022-12-26T23:32:19.704Z,100807.09
2022-12-26T23:34:48.929Z,100810.63
2022-12-26T23:37:17.750Z,100813.09
2022-12-26T23:39:46.263Z,100814.00
2022-12-26T23:42:15.200Z,100820.06
2022-12-26T23:44:44.118Z,100808.91
2022-12-26T23:47:12.997Z,100812.41
2022-12-26T23:49:43.884Z,100824.53
2022-12-26T23:52:12.772Z,100818.47
2022-12-26T23:54:42.343Z,100823.75
2022-12-26T23:57:11.467Z,100818.56
2022-12-26T23:59:40.038Z,100824.75
